Main page
METAR-TAF:

METAR-TAF

Airports :

Bucharest, Romania

Henri Coandă International Airport

latitude: 44-33N, longitude: 026-06E, elevation: 95 m

Current weather observation

The report was made 35 minutes ago, at 07:30 UTC
Wind 3 kt from the West/Southwest
Temperature -2°C
Humidity 80%
Pressure 1030 hPa
Visibility: 8000 m

METAR: LROP 040730Z 25003KT 8000 NSC M02/M05 Q1030 NOSIG

Time: 10:05 (08:05 UTC)

Forecast

The report was made 3 hours and 5 minutes ago, at 05:00 UTC
Forecast valid from 04 at 06 UTC to 05 at 06 UTC
Wind 8 kt from the West
Visibility 10 km or more
no clouds below 1500 m and no cumulonimbus

TAF: LROP 040500Z 0406/0506 26008KT CAVOK

Weather observations and forecasts of more than 4000 airports (METAR and TAF reports).

The available stations are represented by yellow and red dots on the map.

Hover mouse over dot to see the name of the station.

Then click to see weather observations and forecasts.

To change the map : click on the green buttons with a black cross to zoom in, on the green button with a dash to zoom out, or on the green arrows for adjacent maps.


METAR-TAF: